Kafue Polder, Zambia

1:29 PM CAT on April 01, 2015 (GMT +0200)
Kenneth Kaunda Intl | | Change Station
CLOSE
Current Station
Airport
Location: Kenneth Kaunda Intl,
Elevation: 1768 ft
Nearby Weather Stations

Elev 1768 ft 15.33 °S, 28.46 °E | Updated 29 minutes ago

Mostly Cloudy
Mostly Cloudy
73 °F
Feels Like 73 °F
N
12
Wind Variable Wind from NE

Today
High -- | Low -- °F
--% Chance of Precip.
Yesterday
High -- | Low -- °F
Precip. -- in
6:13 AM 6:10 PM
Waxing Gibbous, 92% visible
Pressure 30.12 in
Visibility 6.2 miles
Clouds Scattered Clouds 2500 ft
Few 2800 ft
Mostly Cloudy 9000 ft
Dew Point 70 °F
Humidity 88%
Rainfall 0.00 in
Snow Depth Not available.
UV 7 out of 12
Pollen Not available.
Air Quality Not available.
Flu Activity Not available.
METAR FLKK 011100Z 04010KT 9999 SCT025TCU FEW028 BKN090 23/21 Q1020

More Conditions Fewer Conditions

Pressure 30.12 in
Visibility 6.2 miles
Clouds Scattered Clouds 2500 ft
Few 2800 ft
Mostly Cloudy 9000 ft
Dew Point 70 °F
Humidity 88%
Rainfall 0.00 in
Snow Depth Not available.
UV 7 out of 12
Pollen Not available.
Air Quality Not available.
Flu Activity Not available.
METAR FLKK 011100Z 04010KT 9999 SCT025TCU FEW028 BKN090 23/21 Q1020

More Conditions Fewer Conditions

10-Day Weather Forecast

Almanac

Astronomy

Apr. 01, 2015 Rise Set
Actual Time
Civil Twilight
Nautical Twilight
Astronomical Twilight
Moon
Length of Visible Light
Length of Day
Tomorrow will be .
, % of the Moon is Illuminated

Today's Extremes

Country Highs Country Lows

Community

WunderPhotos

Upload Photos

1,809,936 photos uploaded!

WunderBlogs® & News

Nearby

Air Quality

  Air Quality AQ Index Pollutant
Not available.

Snow Depth

Station Depth Elevation

Earthquake Activity

City Distance Mag. Time & Date
Minimum magnitude displayed is 2.5.

Coastal Water Temperatures

Place Temperature

Stations

Nearby Weather Stations

Station Location Temp. Windchill Dew Point Humidity Wind Precip. Elev Updated Type